sensor_id;sensor_type;location;lat;lon;timestamp;P1;durP1;ratioP1;P2;durP2;ratioP2
80272;SDS011;69574;45.328;9.598;2024-03-23T00:53:40;38.95;;;20.83;;
80272;SDS011;69574;45.328;9.598;2024-03-23T00:56:05;47.40;;;23.65;;
80272;SDS011;69574;45.328;9.598;2024-03-23T00:58:31;44.05;;;22.95;;
80272;SDS011;69574;45.328;9.598;2024-03-23T01:00:57;41.13;;;23.25;;
80272;SDS011;69574;45.328;9.598;2024-03-23T01:03:22;41.13;;;22.88;;
80272;SDS011;69574;45.328;9.598;2024-03-23T01:05:48;43.47;;;24.17;;
80272;SDS011;69574;45.328;9.598;2024-03-23T01:08:34;46.72;;;22.85;;
80272;SDS011;69574;45.328;9.598;2024-03-23T01:11:01;44.30;;;23.38;;
80272;SDS011;69574;45.328;9.598;2024-03-23T01:13:28;42.58;;;22.33;;
80272;SDS011;69574;45.328;9.598;2024-03-23T01:15:54;40.42;;;21.63;;
80272;SDS011;69574;45.328;9.598;2024-03-23T01:18:20;41.95;;;23.05;;
80272;SDS011;69574;45.328;9.598;2024-03-23T01:20:46;40.80;;;22.33;;
80272;SDS011;69574;45.328;9.598;2024-03-23T01:23:12;40.47;;;21.25;;
80272;SDS011;69574;45.328;9.598;2024-03-23T01:25:38;42.72;;;23.02;;
80272;SDS011;69574;45.328;9.598;2024-03-23T01:28:05;37.53;;;21.05;;
80272;SDS011;69574;45.328;9.598;2024-03-23T01:30:34;40.67;;;22.05;;
80272;SDS011;69574;45.328;9.598;2024-03-23T01:33:00;35.88;;;20.58;;
80272;SDS011;69574;45.328;9.598;2024-03-23T01:35:26;35.70;;;19.50;;
80272;SDS011;69574;45.328;9.598;2024-03-23T01:37:52;34.28;;;18.60;;
80272;SDS011;69574;45.328;9.598;2024-03-23T01:40:18;33.00;;;17.95;;
80272;SDS011;69574;45.328;9.598;2024-03-23T01:42:54;38.63;;;21.00;;
80272;SDS011;69574;45.328;9.598;2024-03-23T01:45:22;40.80;;;20.98;;
80272;SDS011;69574;45.328;9.598;2024-03-23T01:47:48;36.08;;;21.38;;
80272;SDS011;69574;45.328;9.598;2024-03-23T01:50:14;39.58;;;21.05;;
80272;SDS011;69574;45.328;9.598;2024-03-23T01:52:40;41.80;;;22.17;;
80272;SDS011;69574;45.328;9.598;2024-03-23T01:55:06;38.95;;;22.30;;
80272;SDS011;69574;45.328;9.598;2024-03-23T01:57:32;37.15;;;21.38;;
80272;SDS011;69574;45.328;9.598;2024-03-23T01:59:58;42.40;;;21.50;;
80272;SDS011;69574;45.328;9.598;2024-03-23T02:02:25;39.88;;;21.20;;
80272;SDS011;69574;45.328;9.598;2024-03-23T02:04:51;41.42;;;22.38;;
80272;SDS011;69574;45.328;9.598;2024-03-23T02:07:17;41.60;;;22.75;;
80272;SDS011;69574;45.328;9.598;2024-03-23T02:09:43;39.95;;;20.58;;
80272;SDS011;69574;45.328;9.598;2024-03-23T02:12:09;39.28;;;21.70;;
80272;SDS011;69574;45.328;9.598;2024-03-23T02:14:35;39.47;;;21.38;;
80272;SDS011;69574;45.328;9.598;2024-03-23T02:17:00;43.08;;;21.13;;
80272;SDS011;69574;45.328;9.598;2024-03-23T02:19:28;39.53;;;22.23;;
80272;SDS011;69574;45.328;9.598;2024-03-23T02:21:54;43.08;;;21.83;;
80272;SDS011;69574;45.328;9.598;2024-03-23T02:24:21;33.83;;;18.42;;
80272;SDS011;69574;45.328;9.598;2024-03-23T02:26:47;30.60;;;16.60;;
80272;SDS011;69574;45.328;9.598;2024-03-23T02:29:14;29.13;;;17.98;;
80272;SDS011;69574;45.328;9.598;2024-03-23T02:31:39;31.42;;;17.60;;
80272;SDS011;69574;45.328;9.598;2024-03-23T02:34:05;33.35;;;18.48;;
80272;SDS011;69574;45.328;9.598;2024-03-23T02:36:31;34.70;;;19.20;;
80272;SDS011;69574;45.328;9.598;2024-03-23T02:38:57;35.10;;;19.08;;
80272;SDS011;69574;45.328;9.598;2024-03-23T02:41:24;35.13;;;18.92;;
80272;SDS011;69574;45.328;9.598;2024-03-23T02:43:50;37.88;;;21.08;;
80272;SDS011;69574;45.328;9.598;2024-03-23T02:46:16;42.20;;;21.73;;
80272;SDS011;69574;45.328;9.598;2024-03-23T02:48:41;34.72;;;20.30;;
80272;SDS011;69574;45.328;9.598;2024-03-23T02:51:07;36.30;;;19.15;;
80272;SDS011;69574;45.328;9.598;2024-03-23T02:53:33;34.65;;;19.45;;
80272;SDS011;69574;45.328;9.598;2024-03-23T02:55:58;36.17;;;19.30;;
80272;SDS011;69574;45.328;9.598;2024-03-23T02:58:26;35.78;;;20.13;;
80272;SDS011;69574;45.328;9.598;2024-03-23T03:00:51;34.67;;;19.67;;
80272;SDS011;69574;45.328;9.598;2024-03-23T03:03:17;37.28;;;19.90;;
80272;SDS011;69574;45.328;9.598;2024-03-23T03:05:43;35.30;;;19.67;;
80272;SDS011;69574;45.328;9.598;2024-03-23T03:08:09;40.95;;;21.52;;
80272;SDS011;69574;45.328;9.598;2024-03-23T03:10:34;39.40;;;21.80;;
80272;SDS011;69574;45.328;9.598;2024-03-23T03:13:01;36.75;;;20.05;;
80272;SDS011;69574;45.328;9.598;2024-03-23T03:15:29;39.78;;;20.52;;
80272;SDS011;69574;45.328;9.598;2024-03-23T03:17:54;36.40;;;20.83;;
80272;SDS011;69574;45.328;9.598;2024-03-23T03:20:20;43.22;;;21.25;;
80272;SDS011;69574;45.328;9.598;2024-03-23T03:25:12;41.00;;;21.37;;
80272;SDS011;69574;45.328;9.598;2024-03-23T03:27:38;39.10;;;20.23;;
80272;SDS011;69574;45.328;9.598;2024-03-23T03:30:05;39.95;;;21.55;;
80272;SDS011;69574;45.328;9.598;2024-03-23T03:32:33;43.55;;;22.73;;
80272;SDS011;69574;45.328;9.598;2024-03-23T03:34:59;40.90;;;21.73;;
80272;SDS011;69574;45.328;9.598;2024-03-23T03:37:25;39.17;;;20.92;;
80272;SDS011;69574;45.328;9.598;2024-03-23T03:39:50;40.03;;;20.13;;
80272;SDS011;69574;45.328;9.598;2024-03-23T03:42:16;38.45;;;21.65;;
80272;SDS011;69574;45.328;9.598;2024-03-23T03:44:42;36.28;;;20.08;;
80272;SDS011;69574;45.328;9.598;2024-03-23T03:47:08;39.30;;;21.58;;
80272;SDS011;69574;45.328;9.598;2024-03-23T03:49:35;32.40;;;17.58;;
80272;SDS011;69574;45.328;9.598;2024-03-23T03:52:01;36.05;;;20.42;;
80272;SDS011;69574;45.328;9.598;2024-03-23T03:54:27;33.75;;;18.73;;
80272;SDS011;69574;45.328;9.598;2024-03-23T03:56:53;31.15;;;17.73;;
80272;SDS011;69574;45.328;9.598;2024-03-23T03:59:18;30.92;;;17.45;;
80272;SDS011;69574;45.328;9.598;2024-03-23T04:01:45;31.85;;;17.42;;
80272;SDS011;69574;45.328;9.598;2024-03-23T04:04:11;33.80;;;18.45;;
80272;SDS011;69574;45.328;9.598;2024-03-23T04:06:38;38.70;;;19.60;;
80272;SDS011;69574;45.328;9.598;2024-03-23T04:09:04;36.38;;;19.50;;
80272;SDS011;69574;45.328;9.598;2024-03-23T04:11:31;37.08;;;19.10;;
80272;SDS011;69574;45.328;9.598;2024-03-23T04:13:57;38.45;;;21.33;;
80272;SDS011;69574;45.328;9.598;2024-03-23T04:16:26;36.42;;;19.25;;
80272;SDS011;69574;45.328;9.598;2024-03-23T04:18:52;40.72;;;20.75;;
80272;SDS011;69574;45.328;9.598;2024-03-23T04:21:18;42.83;;;20.38;;
80272;SDS011;69574;45.328;9.598;2024-03-23T04:23:45;36.25;;;19.80;;
80272;SDS011;69574;45.328;9.598;2024-03-23T04:26:11;38.60;;;19.83;;
80272;SDS011;69574;45.328;9.598;2024-03-23T04:28:37;36.28;;;19.92;;
80272;SDS011;69574;45.328;9.598;2024-03-23T04:31:03;38.15;;;19.63;;
80272;SDS011;69574;45.328;9.598;2024-03-23T04:33:29;37.42;;;18.83;;
80272;SDS011;69574;45.328;9.598;2024-03-23T04:35:54;30.65;;;17.55;;
80272;SDS011;69574;45.328;9.598;2024-03-23T04:38:20;33.95;;;18.00;;
80272;SDS011;69574;45.328;9.598;2024-03-23T04:40:55;33.85;;;18.17;;
80272;SDS011;69574;45.328;9.598;2024-03-23T04:43:20;36.92;;;18.63;;
80272;SDS011;69574;45.328;9.598;2024-03-23T04:45:46;31.52;;;17.63;;
80272;SDS011;69574;45.328;9.598;2024-03-23T04:48:12;32.03;;;18.77;;
80272;SDS011;69574;45.328;9.598;2024-03-23T04:50:38;31.00;;;17.00;;
80272;SDS011;69574;45.328;9.598;2024-03-23T04:53:04;32.30;;;17.98;;
80272;SDS011;69574;45.328;9.598;2024-03-23T04:55:30;29.80;;;17.33;;
80272;SDS011;69574;45.328;9.598;2024-03-23T04:57:57;34.28;;;18.88;;
80272;SDS011;69574;45.328;9.598;2024-03-23T05:00:23;28.02;;;17.60;;
80272;SDS011;69574;45.328;9.598;2024-03-23T05:02:50;37.83;;;20.08;;
80272;SDS011;69574;45.328;9.598;2024-03-23T05:05:16;33.35;;;19.02;;
80272;SDS011;69574;45.328;9.598;2024-03-23T05:07:42;31.80;;;18.38;;
80272;SDS011;69574;45.328;9.598;2024-03-23T05:10:09;34.80;;;19.63;;
80272;SDS011;69574;45.328;9.598;2024-03-23T05:12:36;35.03;;;19.08;;
80272;SDS011;69574;45.328;9.598;2024-03-23T05:15:03;34.90;;;19.90;;
80272;SDS011;69574;45.328;9.598;2024-03-23T05:17:29;34.67;;;19.85;;
80272;SDS011;69574;45.328;9.598;2024-03-23T05:19:55;34.35;;;19.55;;
80272;SDS011;69574;45.328;9.598;2024-03-23T05:22:21;37.22;;;19.25;;
80272;SDS011;69574;45.328;9.598;2024-03-23T05:24:46;35.00;;;20.10;;
80272;SDS011;69574;45.328;9.598;2024-03-23T05:27:13;35.67;;;19.65;;
80272;SDS011;69574;45.328;9.598;2024-03-23T05:29:38;38.50;;;20.80;;
80272;SDS011;69574;45.328;9.598;2024-03-23T05:32:06;37.90;;;19.45;;
80272;SDS011;69574;45.328;9.598;2024-03-23T05:34:32;42.50;;;22.23;;
80272;SDS011;69574;45.328;9.598;2024-03-23T05:36:57;63.95;;;21.05;;
80272;SDS011;69574;45.328;9.598;2024-03-23T05:39:23;39.13;;;19.60;;
80272;SDS011;69574;45.328;9.598;2024-03-23T05:41:49;34.63;;;19.30;;
80272;SDS011;69574;45.328;9.598;2024-03-23T05:44:15;39.30;;;19.88;;
80272;SDS011;69574;45.328;9.598;2024-03-23T05:46:40;38.25;;;20.08;;
80272;SDS011;69574;45.328;9.598;2024-03-23T05:49:08;39.58;;;19.85;;
80272;SDS011;69574;45.328;9.598;2024-03-23T05:51:34;35.72;;;18.65;;
80272;SDS011;69574;45.328;9.598;2024-03-23T05:54:00;34.33;;;19.00;;
80272;SDS011;69574;45.328;9.598;2024-03-23T05:56:26;36.80;;;19.15;;
80272;SDS011;69574;45.328;9.598;2024-03-23T05:58:52;34.88;;;18.38;;
80272;SDS011;69574;45.328;9.598;2024-03-23T06:01:18;33.85;;;19.83;;
80272;SDS011;69574;45.328;9.598;2024-03-23T06:03:44;37.28;;;18.10;;
80272;SDS011;69574;45.328;9.598;2024-03-23T06:06:11;38.40;;;20.13;;
80272;SDS011;69574;45.328;9.598;2024-03-23T06:08:38;33.28;;;19.63;;
80272;SDS011;69574;45.328;9.598;2024-03-23T06:11:04;35.83;;;19.27;;
80272;SDS011;69574;45.328;9.598;2024-03-23T06:13:31;36.08;;;19.27;;
80272;SDS011;69574;45.328;9.598;2024-03-23T06:15:57;35.88;;;19.67;;
80272;SDS011;69574;45.328;9.598;2024-03-23T06:18:23;40.33;;;20.00;;
80272;SDS011;69574;45.328;9.598;2024-03-23T06:20:49;48.75;;;22.50;;
80272;SDS011;69574;45.328;9.598;2024-03-23T06:23:17;47.47;;;22.17;;
80272;SDS011;69574;45.328;9.598;2024-03-23T06:25:45;39.72;;;21.10;;
80272;SDS011;69574;45.328;9.598;2024-03-23T06:28:11;44.13;;;21.90;;
80272;SDS011;69574;45.328;9.598;2024-03-23T06:30:36;46.38;;;22.40;;
80272;SDS011;69574;45.328;9.598;2024-03-23T06:33:02;48.33;;;22.88;;
80272;SDS011;69574;45.328;9.598;2024-03-23T06:35:28;49.83;;;24.52;;
80272;SDS011;69574;45.328;9.598;2024-03-23T06:37:54;42.42;;;22.83;;
80272;SDS011;69574;45.328;9.598;2024-03-23T06:40:21;52.80;;;25.10;;
80272;SDS011;69574;45.328;9.598;2024-03-23T06:42:46;47.47;;;25.08;;
80272;SDS011;69574;45.328;9.598;2024-03-23T06:45:12;48.47;;;25.33;;
80272;SDS011;69574;45.328;9.598;2024-03-23T06:47:38;50.08;;;24.95;;
80272;SDS011;69574;45.328;9.598;2024-03-23T06:50:04;55.13;;;26.63;;
80272;SDS011;69574;45.328;9.598;2024-03-23T06:52:30;51.53;;;26.98;;
80272;SDS011;69574;45.328;9.598;2024-03-23T06:54:56;49.10;;;26.48;;
80272;SDS011;69574;45.328;9.598;2024-03-23T06:57:23;53.08;;;29.00;;
80272;SDS011;69574;45.328;9.598;2024-03-23T06:59:49;52.08;;;26.60;;
80272;SDS011;69574;45.328;9.598;2024-03-23T07:02:15;54.08;;;27.70;;
80272;SDS011;69574;45.328;9.598;2024-03-23T07:04:41;49.83;;;26.13;;
80272;SDS011;69574;45.328;9.598;2024-03-23T07:07:07;62.35;;;28.95;;
80272;SDS011;69574;45.328;9.598;2024-03-23T07:09:33;52.15;;;27.02;;
80272;SDS011;69574;45.328;9.598;2024-03-23T07:11:58;56.88;;;28.20;;
80272;SDS011;69574;45.328;9.598;2024-03-23T07:14:26;49.58;;;26.90;;
80272;SDS011;69574;45.328;9.598;2024-03-23T07:16:51;61.10;;;28.45;;
80272;SDS011;69574;45.328;9.598;2024-03-23T07:19:17;58.28;;;27.58;;
80272;SDS011;69574;45.328;9.598;2024-03-23T07:21:43;50.08;;;27.10;;
80272;SDS011;69574;45.328;9.598;2024-03-23T07:24:09;49.35;;;26.27;;
80272;SDS011;69574;45.328;9.598;2024-03-23T07:26:35;53.20;;;26.23;;
80272;SDS011;69574;45.328;9.598;2024-03-23T07:29:00;51.28;;;26.88;;
80272;SDS011;69574;45.328;9.598;2024-03-23T07:31:29;54.08;;;26.90;;
80272;SDS011;69574;45.328;9.598;2024-03-23T07:33:54;54.47;;;24.77;;
80272;SDS011;69574;45.328;9.598;2024-03-23T07:36:20;53.58;;;26.98;;
80272;SDS011;69574;45.328;9.598;2024-03-23T07:38:46;52.45;;;27.08;;
80272;SDS011;69574;45.328;9.598;2024-03-23T07:41:13;51.55;;;27.02;;
80272;SDS011;69574;45.328;9.598;2024-03-23T07:43:40;50.88;;;25.45;;
80272;SDS011;69574;45.328;9.598;2024-03-23T07:46:08;62.78;;;25.98;;
80272;SDS011;69574;45.328;9.598;2024-03-23T07:48:35;44.80;;;23.60;;
80272;SDS011;69574;45.328;9.598;2024-03-23T07:51:01;48.45;;;24.20;;
80272;SDS011;69574;45.328;9.598;2024-03-23T07:53:27;43.38;;;23.52;;
80272;SDS011;69574;45.328;9.598;2024-03-23T07:55:56;45.38;;;23.58;;
80272;SDS011;69574;45.328;9.598;2024-03-23T07:58:23;43.22;;;23.00;;
80272;SDS011;69574;45.328;9.598;2024-03-23T08:00:48;44.80;;;23.27;;
80272;SDS011;69574;45.328;9.598;2024-03-23T08:03:14;44.80;;;22.60;;
80272;SDS011;69574;45.328;9.598;2024-03-23T08:05:41;42.42;;;23.23;;
80272;SDS011;69574;45.328;9.598;2024-03-23T08:08:07;45.55;;;22.77;;
80272;SDS011;69574;45.328;9.598;2024-03-23T08:10:33;53.00;;;25.83;;
80272;SDS011;69574;45.328;9.598;2024-03-23T08:12:58;45.83;;;22.45;;
80272;SDS011;69574;45.328;9.598;2024-03-23T08:15:26;51.17;;;22.75;;
80272;SDS011;69574;45.328;9.598;2024-03-23T08:17:52;54.72;;;23.13;;
80272;SDS011;69574;45.328;9.598;2024-03-23T08:20:17;41.42;;;22.33;;
80272;SDS011;69574;45.328;9.598;2024-03-23T08:22:45;40.95;;;21.55;;
80272;SDS011;69574;45.328;9.598;2024-03-23T08:25:10;38.08;;;19.35;;
80272;SDS011;69574;45.328;9.598;2024-03-23T08:27:36;43.53;;;19.80;;
80272;SDS011;69574;45.328;9.598;2024-03-23T08:30:02;38.15;;;20.70;;
80272;SDS011;69574;45.328;9.598;2024-03-23T08:32:27;35.42;;;19.15;;
80272;SDS011;69574;45.328;9.598;2024-03-23T08:34:53;35.10;;;18.90;;
80272;SDS011;69574;45.328;9.598;2024-03-23T08:37:19;39.42;;;19.92;;
80272;SDS011;69574;45.328;9.598;2024-03-23T08:39:46;38.45;;;19.67;;
80272;SDS011;69574;45.328;9.598;2024-03-23T08:42:12;34.72;;;19.77;;
80272;SDS011;69574;45.328;9.598;2024-03-23T08:44:37;42.03;;;21.05;;
80272;SDS011;69574;45.328;9.598;2024-03-23T08:47:03;36.10;;;19.80;;
80272;SDS011;69574;45.328;9.598;2024-03-23T08:49:29;40.42;;;20.95;;
80272;SDS011;69574;45.328;9.598;2024-03-23T08:51:55;39.75;;;22.13;;
80272;SDS011;69574;45.328;9.598;2024-03-23T08:54:21;45.70;;;21.27;;
80272;SDS011;69574;45.328;9.598;2024-03-23T08:56:50;41.63;;;22.25;;
80272;SDS011;69574;45.328;9.598;2024-03-23T08:59:15;41.92;;;23.33;;
80272;SDS011;69574;45.328;9.598;2024-03-23T09:01:41;40.70;;;21.95;;
80272;SDS011;69574;45.328;9.598;2024-03-23T09:04:07;43.30;;;24.55;;
80272;SDS011;69574;45.328;9.598;2024-03-23T09:06:33;42.78;;;22.13;;
80272;SDS011;69574;45.328;9.598;2024-03-23T09:08:58;41.97;;;22.35;;
80272;SDS011;69574;45.328;9.598;2024-03-23T09:11:25;39.20;;;22.10;;
80272;SDS011;69574;45.328;9.598;2024-03-23T09:13:52;49.55;;;22.85;;
80272;SDS011;69574;45.328;9.598;2024-03-23T09:16:18;36.60;;;21.25;;
80272;SDS011;69574;45.328;9.598;2024-03-23T09:18:44;40.85;;;22.40;;
80272;SDS011;69574;45.328;9.598;2024-03-23T09:21:11;36.92;;;20.67;;
80272;SDS011;69574;45.328;9.598;2024-03-23T09:23:37;34.45;;;21.02;;
80272;SDS011;69574;45.328;9.598;2024-03-23T09:26:03;35.40;;;21.15;;
80272;SDS011;69574;45.328;9.598;2024-03-23T09:28:28;34.60;;;19.75;;
80272;SDS011;69574;45.328;9.598;2024-03-23T09:33:22;36.07;;;19.67;;
80272;SDS011;69574;45.328;9.598;2024-03-23T09:35:48;32.83;;;18.02;;
80272;SDS011;69574;45.328;9.598;2024-03-23T09:38:13;27.42;;;16.70;;
80272;SDS011;69574;45.328;9.598;2024-03-23T09:40:40;33.65;;;17.35;;
80272;SDS011;69574;45.328;9.598;2024-03-23T09:45:31;29.27;;;16.37;;
80272;SDS011;69574;45.328;9.598;2024-03-23T09:47:58;28.70;;;16.60;;
80272;SDS011;69574;45.328;9.598;2024-03-23T09:50:26;30.98;;;16.88;;
80272;SDS011;69574;45.328;9.598;2024-03-23T09:52:51;26.77;;;16.05;;
80272;SDS011;69574;45.328;9.598;2024-03-23T09:55:17;25.52;;;16.40;;
80272;SDS011;69574;45.328;9.598;2024-03-23T09:57:43;28.15;;;16.67;;
80272;SDS011;69574;45.328;9.598;2024-03-23T10:00:09;25.85;;;15.38;;
80272;SDS011;69574;45.328;9.598;2024-03-23T10:02:35;36.88;;;14.13;;
80272;SDS011;69574;45.328;9.598;2024-03-23T10:05:01;24.02;;;14.52;;
80272;SDS011;69574;45.328;9.598;2024-03-23T10:07:28;21.02;;;13.60;;
80272;SDS011;69574;45.328;9.598;2024-03-23T10:09:54;23.15;;;12.70;;
80272;SDS011;69574;45.328;9.598;2024-03-23T10:12:20;48.10;;;15.57;;
80272;SDS011;69574;45.328;9.598;2024-03-23T10:14:46;29.23;;;13.77;;
80272;SDS011;69574;45.328;9.598;2024-03-23T10:17:13;28.90;;;13.52;;
80272;SDS011;69574;45.328;9.598;2024-03-23T10:19:39;24.30;;;14.10;;
80272;SDS011;69574;45.328;9.598;2024-03-23T10:22:06;25.60;;;14.02;;
80272;SDS011;69574;45.328;9.598;2024-03-23T10:24:33;22.98;;;14.18;;
80272;SDS011;69574;45.328;9.598;2024-03-23T10:26:59;25.60;;;13.32;;
80272;SDS011;69574;45.328;9.598;2024-03-23T10:29:25;22.08;;;13.77;;
80272;SDS011;69574;45.328;9.598;2024-03-23T10:31:53;20.00;;;12.95;;
80272;SDS011;69574;45.328;9.598;2024-03-23T10:34:24;20.88;;;13.52;;
80272;SDS011;69574;45.328;9.598;2024-03-23T10:36:50;22.65;;;13.88;;
80272;SDS011;69574;45.328;9.598;2024-03-23T10:39:17;21.52;;;13.30;;
80272;SDS011;69574;45.328;9.598;2024-03-23T10:41:45;23.58;;;13.35;;
80272;SDS011;69574;45.328;9.598;2024-03-23T10:44:11;24.23;;;13.95;;
80272;SDS011;69574;45.328;9.598;2024-03-23T10:46:37;22.48;;;14.02;;
80272;SDS011;69574;45.328;9.598;2024-03-23T10:49:03;23.88;;;14.13;;
80272;SDS011;69574;45.328;9.598;2024-03-23T10:51:29;25.25;;;14.27;;
80272;SDS011;69574;45.328;9.598;2024-03-23T10:53:54;45.95;;;14.38;;
80272;SDS011;69574;45.328;9.598;2024-03-23T10:56:21;35.85;;;13.75;;
80272;SDS011;69574;45.328;9.598;2024-03-23T11:01:14;22.93;;;11.77;;
80272;SDS011;69574;45.328;9.598;2024-03-23T11:03:44;19.45;;;10.68;;
80272;SDS011;69574;45.328;9.598;2024-03-23T11:06:10;18.55;;;12.13;;
80272;SDS011;69574;45.328;9.598;2024-03-23T11:08:36;18.65;;;10.95;;
80272;SDS011;69574;45.328;9.598;2024-03-23T11:11:14;30.13;;;12.15;;
80272;SDS011;69574;45.328;9.598;2024-03-23T11:13:42;21.70;;;11.10;;
80272;SDS011;69574;45.328;9.598;2024-03-23T11:16:16;19.42;;;11.60;;
80272;SDS011;69574;45.328;9.598;2024-03-23T11:18:42;16.83;;;10.98;;
80272;SDS011;69574;45.328;9.598;2024-03-23T11:21:09;16.48;;;10.55;;
80272;SDS011;69574;45.328;9.598;2024-03-23T11:23:34;16.75;;;10.68;;
80272;SDS011;69574;45.328;9.598;2024-03-23T11:26:00;16.70;;;10.43;;
80272;SDS011;69574;45.328;9.598;2024-03-23T11:28:26;19.30;;;11.02;;
80272;SDS011;69574;45.328;9.598;2024-03-23T11:30:51;16.02;;;11.00;;
80272;SDS011;69574;45.328;9.598;2024-03-23T11:33:19;16.75;;;11.40;;
80272;SDS011;69574;45.328;9.598;2024-03-23T11:35:44;18.52;;;11.25;;
80272;SDS011;69574;45.328;9.598;2024-03-23T11:38:10;17.20;;;10.48;;
80272;SDS011;69574;45.328;9.598;2024-03-23T11:40:37;18.50;;;11.30;;
80272;SDS011;69574;45.328;9.598;2024-03-23T11:45:29;17.87;;;10.20;;
80272;SDS011;69574;45.328;9.598;2024-03-23T11:50:45;18.00;;;10.55;;
80272;SDS011;69574;45.328;9.598;2024-03-23T11:53:12;18.67;;;10.65;;
80272;SDS011;69574;45.328;9.598;2024-03-23T11:55:39;21.40;;;10.98;;
80272;SDS011;69574;45.328;9.598;2024-03-23T11:58:05;20.17;;;10.50;;
80272;SDS011;69574;45.328;9.598;2024-03-23T12:00:31;18.08;;;10.57;;
80272;SDS011;69574;45.328;9.598;2024-03-23T12:02:59;19.20;;;10.68;;
80272;SDS011;69574;45.328;9.598;2024-03-23T12:05:26;18.27;;;11.13;;
80272;SDS011;69574;45.328;9.598;2024-03-23T12:07:53;16.20;;;10.52;;
80272;SDS011;69574;45.328;9.598;2024-03-23T12:10:19;17.88;;;10.70;;
80272;SDS011;69574;45.328;9.598;2024-03-23T12:12:45;17.45;;;11.13;;
80272;SDS011;69574;45.328;9.598;2024-03-23T12:15:11;20.77;;;11.05;;
80272;SDS011;69574;45.328;9.598;2024-03-23T12:17:38;18.98;;;11.15;;
80272;SDS011;69574;45.328;9.598;2024-03-23T12:20:04;16.75;;;10.75;;
80272;SDS011;69574;45.328;9.598;2024-03-23T12:22:30;17.90;;;10.82;;
80272;SDS011;69574;45.328;9.598;2024-03-23T12:24:57;14.77;;;10.70;;
80272;SDS011;69574;45.328;9.598;2024-03-23T12:27:23;17.50;;;10.98;;
80272;SDS011;69574;45.328;9.598;2024-03-23T12:29:49;15.77;;;9.98;;
80272;SDS011;69574;45.328;9.598;2024-03-23T12:32:14;18.17;;;10.52;;
80272;SDS011;69574;45.328;9.598;2024-03-23T12:37:07;17.17;;;9.98;;
80272;SDS011;69574;45.328;9.598;2024-03-23T12:39:32;16.95;;;10.10;;
80272;SDS011;69574;45.328;9.598;2024-03-23T12:42:02;17.60;;;9.85;;
80272;SDS011;69574;45.328;9.598;2024-03-23T12:44:28;17.23;;;9.93;;
80272;SDS011;69574;45.328;9.598;2024-03-23T12:46:54;31.70;;;11.15;;
80272;SDS011;69574;45.328;9.598;2024-03-23T12:49:19;19.42;;;9.98;;
80272;SDS011;69574;45.328;9.598;2024-03-23T12:51:47;19.05;;;10.68;;
80272;SDS011;69574;45.328;9.598;2024-03-23T12:54:13;18.17;;;11.23;;
80272;SDS011;69574;45.328;9.598;2024-03-23T12:56:39;17.02;;;10.40;;
80272;SDS011;69574;45.328;9.598;2024-03-23T12:59:06;27.15;;;11.85;;
80272;SDS011;69574;45.328;9.598;2024-03-23T13:01:32;20.42;;;10.38;;
80272;SDS011;69574;45.328;9.598;2024-03-23T13:03:58;16.73;;;10.50;;
80272;SDS011;69574;45.328;9.598;2024-03-23T13:06:24;16.27;;;10.10;;
80272;SDS011;69574;45.328;9.598;2024-03-23T13:08:52;16.38;;;9.98;;
80272;SDS011;69574;45.328;9.598;2024-03-23T13:11:20;18.00;;;10.88;;
80272;SDS011;69574;45.328;9.598;2024-03-23T13:13:45;18.02;;;10.65;;
80272;SDS011;69574;45.328;9.598;2024-03-23T13:16:12;16.48;;;11.35;;
80272;SDS011;69574;45.328;9.598;2024-03-23T13:18:38;19.48;;;11.50;;
80272;SDS011;69574;45.328;9.598;2024-03-23T13:21:04;61.25;;;16.65;;
80272;SDS011;69574;45.328;9.598;2024-03-23T13:23:30;27.58;;;15.50;;
80272;SDS011;69574;45.328;9.598;2024-03-23T13:25:56;37.33;;;15.25;;
80272;SDS011;69574;45.328;9.598;2024-03-23T13:28:22;28.75;;;15.15;;
80272;SDS011;69574;45.328;9.598;2024-03-23T13:30:51;23.05;;;15.32;;
80272;SDS011;69574;45.328;9.598;2024-03-23T13:33:18;28.00;;;16.40;;
80272;SDS011;69574;45.328;9.598;2024-03-23T13:35:50;23.15;;;14.30;;
80272;SDS011;69574;45.328;9.598;2024-03-23T13:38:16;27.73;;;14.85;;
80272;SDS011;69574;45.328;9.598;2024-03-23T13:40:49;30.90;;;16.45;;
80272;SDS011;69574;45.328;9.598;2024-03-23T13:45:40;22.13;;;14.33;;
80272;SDS011;69574;45.328;9.598;2024-03-23T13:48:06;23.30;;;13.57;;
80272;SDS011;69574;45.328;9.598;2024-03-23T13:50:33;23.45;;;13.02;;
80272;SDS011;69574;45.328;9.598;2024-03-23T13:52:59;22.05;;;14.18;;
80272;SDS011;69574;45.328;9.598;2024-03-23T13:55:25;23.23;;;13.45;;
80272;SDS011;69574;45.328;9.598;2024-03-23T13:57:50;21.35;;;13.45;;
80272;SDS011;69574;45.328;9.598;2024-03-23T14:00:16;22.17;;;14.57;;
80272;SDS011;69574;45.328;9.598;2024-03-23T14:02:43;24.95;;;14.75;;
80272;SDS011;69574;45.328;9.598;2024-03-23T14:05:09;24.25;;;13.63;;
80272;SDS011;69574;45.328;9.598;2024-03-23T14:07:37;23.23;;;11.82;;
80272;SDS011;69574;45.328;9.598;2024-03-23T14:10:05;24.70;;;13.50;;
80272;SDS011;69574;45.328;9.598;2024-03-23T14:12:36;21.02;;;11.80;;
80272;SDS011;69574;45.328;9.598;2024-03-23T14:15:04;23.75;;;12.73;;
80272;SDS011;69574;45.328;9.598;2024-03-23T14:17:30;19.73;;;11.55;;
80272;SDS011;69574;45.328;9.598;2024-03-23T14:19:56;19.55;;;11.70;;
80272;SDS011;69574;45.328;9.598;2024-03-23T14:22:25;18.33;;;11.52;;
80272;SDS011;69574;45.328;9.598;2024-03-23T14:24:53;20.98;;;12.60;;
80272;SDS011;69574;45.328;9.598;2024-03-23T14:27:19;23.02;;;11.38;;
80272;SDS011;69574;45.328;9.598;2024-03-23T14:29:46;23.98;;;9.10;;
80272;SDS011;69574;45.328;9.598;2024-03-23T14:32:12;49.75;;;6.65;;
80272;SDS011;69574;45.328;9.598;2024-03-23T14:34:38;38.88;;;6.80;;
80272;SDS011;69574;45.328;9.598;2024-03-23T14:37:04;18.50;;;4.35;;
80272;SDS011;69574;45.328;9.598;2024-03-23T14:41:58;25.55;;;5.90;;
80272;SDS011;69574;45.328;9.598;2024-03-23T14:44:24;17.33;;;4.90;;
80272;SDS011;69574;45.328;9.598;2024-03-23T14:46:49;17.88;;;5.40;;
80272;SDS011;69574;45.328;9.598;2024-03-23T14:49:15;21.80;;;6.10;;
80272;SDS011;69574;45.328;9.598;2024-03-23T14:51:42;14.90;;;5.22;;
80272;SDS011;69574;45.328;9.598;2024-03-23T14:54:08;10.68;;;4.75;;
80272;SDS011;69574;45.328;9.598;2024-03-23T14:56:33;10.20;;;4.65;;
80272;SDS011;69574;45.328;9.598;2024-03-23T14:59:01;12.05;;;4.90;;
80272;SDS011;69574;45.328;9.598;2024-03-23T15:01:28;9.65;;;5.10;;
80272;SDS011;69574;45.328;9.598;2024-03-23T15:03:54;11.20;;;4.72;;
80272;SDS011;69574;45.328;9.598;2024-03-23T15:08:45;9.77;;;4.57;;
80272;SDS011;69574;45.328;9.598;2024-03-23T15:11:11;11.13;;;5.25;;
80272;SDS011;69574;45.328;9.598;2024-03-23T15:13:37;9.70;;;4.70;;
80272;SDS011;69574;45.328;9.598;2024-03-23T15:16:05;11.02;;;4.43;;
80272;SDS011;69574;45.328;9.598;2024-03-23T15:18:31;9.90;;;4.55;;
80272;SDS011;69574;45.328;9.598;2024-03-23T15:23:23;10.13;;;5.68;;
80272;SDS011;69574;45.328;9.598;2024-03-23T15:25:53;12.27;;;7.95;;
80272;SDS011;69574;45.328;9.598;2024-03-23T15:28:19;12.15;;;6.47;;
80272;SDS011;69574;45.328;9.598;2024-03-23T15:30:45;12.05;;;5.63;;
80272;SDS011;69574;45.328;9.598;2024-03-23T15:33:12;10.32;;;4.45;;
80272;SDS011;69574;45.328;9.598;2024-03-23T15:35:38;11.95;;;4.95;;
80272;SDS011;69574;45.328;9.598;2024-03-23T15:38:04;9.55;;;5.07;;